Terminal Aerodrome Forecast
Issued by NWS Wilmington, OH

Current Version | Previous Version | Graphics & Text | Print | Product List | Glossary On
Versions: 1 2 3 4 5 6 7 8 9 10 11 12 13 14 15 16 17 18 19 20
736
FTUS41 KILN 290946 AAB
TAFILN
TAF AMD
KILN 290946Z 2910/3006 04009KT P6SM OVC013
      TEMPO 2910/2913 5SM BR SKC
     FM291400 05007KT P6SM BKN025
     FM291700 05010KT P6SM SCT035
     FM292100 07008KT P6SM BKN200=

USA.gov is the U.S. government's official web portal to all federal, state and local government web resources and services.